createdAt,value
2023-05-11T00:01:04.470Z,12.60
2023-05-11T00:03:32.486Z,12.60
2023-05-11T00:09:08.855Z,12.40
2023-05-11T00:11:36.253Z,12.40
2023-05-11T00:14:03.811Z,12.60
2023-05-11T00:16:31.107Z,12.60
2023-05-11T00:18:58.440Z,12.80
2023-05-11T00:21:25.410Z,12.80
2023-05-11T00:23:52.630Z,12.90
2023-05-11T00:26:22.192Z,12.90
2023-05-11T00:33:55.192Z,12.60
2023-05-11T00:36:22.887Z,11.90
2023-05-11T00:38:50.166Z,11.80
2023-05-11T00:41:17.456Z,11.80
2023-05-11T00:43:44.289Z,11.90
2023-05-11T00:46:11.436Z,11.80
2023-05-11T00:48:38.983Z,12.00
2023-05-11T00:58:37.490Z,12.00
2023-05-11T01:01:04.991Z,12.10
2023-05-11T01:03:33.097Z,11.70
2023-05-11T01:06:06.513Z,11.80
2023-05-11T01:08:41.936Z,11.80
2023-05-11T01:11:15.932Z,12.20
2023-05-11T01:13:50.908Z,12.30
2023-05-11T01:20:35.873Z,11.90
2023-05-11T01:23:23.665Z,12.10
2023-05-11T01:26:14.723Z,11.90
2023-05-11T01:29:08.446Z,11.90
2023-05-11T01:31:41.375Z,11.80
2023-05-11T01:34:13.260Z,11.80
2023-05-11T01:36:51.199Z,11.80
2023-05-11T01:44:28.215Z,11.60
2023-05-11T01:46:56.181Z,11.50
2023-05-11T01:49:23.536Z,11.50
2023-05-11T01:51:53.689Z,11.50
2023-05-11T01:54:22.197Z,11.40
2023-05-11T01:56:51.257Z,11.30
2023-05-11T01:59:19.072Z,11.30
2023-05-11T02:04:38.965Z,11.40
2023-05-11T02:07:07.756Z,11.70
2023-05-11T02:09:36.176Z,11.70
2023-05-11T02:12:04.989Z,11.60
2023-05-11T02:14:35.922Z,11.70
2023-05-11T02:17:04.710Z,11.70
2023-05-11T02:19:34.428Z,11.70
2023-05-11T02:27:05.629Z,11.50
2023-05-11T02:29:33.278Z,11.50
2023-05-11T02:32:06.930Z,11.50
2023-05-11T02:34:40.919Z,11.40
2023-05-11T02:37:13.443Z,11.40
2023-05-11T02:39:45.015Z,11.30
2023-05-11T02:42:15.495Z,11.20
2023-05-11T02:47:27.464Z,11.10
2023-05-11T02:49:57.780Z,11.00
2023-05-11T02:52:27.909Z,10.90
2023-05-11T02:54:56.958Z,10.90
2023-05-11T02:57:25.108Z,10.90
2023-05-11T02:59:52.576Z,10.90
2023-05-11T03:02:19.776Z,11.00
2023-05-11T03:09:51.939Z,11.10
2023-05-11T03:12:20.258Z,11.00
2023-05-11T03:14:48.934Z,11.10
2023-05-11T03:17:17.485Z,11.10
2023-05-11T03:19:45.027Z,11.00
2023-05-11T03:22:12.713Z,11.00
2023-05-11T03:24:40.181Z,11.00
2023-05-11T03:35:27.923Z,11.00
2023-05-11T03:37:57.397Z,11.10
2023-05-11T03:40:25.189Z,11.20
2023-05-11T03:42:55.073Z,11.20
2023-05-11T03:45:22.898Z,11.20
2023-05-11T03:47:51.188Z,11.10
2023-05-11T03:50:19.773Z,11.20
2023-05-11T03:52:49.054Z,11.30
2023-05-11T04:00:17.842Z,11.40
2023-05-11T04:02:45.344Z,11.50
2023-05-11T04:05:13.940Z,11.60
2023-05-11T04:07:41.162Z,11.50
2023-05-11T04:10:09.148Z,11.40
2023-05-11T04:12:36.310Z,11.30
2023-05-11T04:15:04.140Z,11.30
2023-05-11T04:22:32.190Z,11.30
2023-05-11T04:24:59.693Z,11.40
2023-05-11T04:27:26.976Z,11.50
2023-05-11T04:29:54.955Z,11.60
2023-05-11T04:32:22.113Z,11.50
2023-05-11T04:34:49.158Z,11.60
2023-05-11T04:37:16.673Z,11.70
2023-05-11T04:39:44.763Z,11.90
2023-05-11T04:47:12.349Z,11.70
2023-05-11T04:49:39.804Z,11.60
2023-05-11T04:52:07.045Z,11.40
2023-05-11T04:54:36.584Z,11.30
2023-05-11T04:57:04.069Z,11.30
2023-05-11T04:59:31.348Z,11.20
2023-05-11T05:01:59.227Z,11.20
2023-05-11T05:04:27.588Z,11.20
2023-05-11T05:11:59.604Z,11.00
2023-05-11T05:14:27.194Z,11.20
2023-05-11T05:16:54.456Z,11.20
2023-05-11T05:19:22.096Z,11.20
2023-05-11T05:21:51.713Z,11.30
2023-05-11T05:24:18.856Z,11.30
2023-05-11T05:26:46.256Z,11.20
2023-05-11T05:31:59.435Z,11.30
2023-05-11T05:34:27.131Z,11.20
2023-05-11T05:36:54.588Z,11.20
2023-05-11T05:39:21.644Z,11.10
2023-05-11T05:41:49.657Z,11.20
2023-05-11T05:44:17.002Z,10.90
2023-05-11T05:46:45.862Z,10.90
2023-05-11T05:52:13.707Z,10.70
2023-05-11T05:54:41.500Z,10.70
2023-05-11T05:57:08.998Z,10.80
2023-05-11T05:59:36.995Z,10.90
2023-05-11T06:02:05.833Z,11.00
2023-05-11T06:04:33.311Z,11.00
2023-05-11T06:07:00.564Z,11.10
2023-05-11T06:09:28.854Z,11.10
2023-05-11T06:17:00.359Z,11.10
2023-05-11T06:19:27.500Z,10.90
2023-05-11T06:21:54.619Z,10.90
2023-05-11T06:24:22.038Z,10.70
2023-05-11T06:26:49.435Z,10.90
2023-05-11T06:29:17.110Z,11.20
2023-05-11T06:31:44.554Z,11.30
2023-05-11T06:37:19.768Z,11.00
2023-05-11T06:39:46.998Z,11.30
2023-05-11T06:42:14.581Z,11.50
2023-05-11T06:44:45.313Z,11.50
2023-05-11T06:47:12.375Z,11.20
2023-05-11T06:49:39.611Z,11.40
2023-05-11T06:52:07.142Z,11.60
2023-05-11T06:59:59.284Z,11.60
2023-05-11T07:02:26.444Z,11.60
2023-05-11T07:04:53.668Z,11.50
2023-05-11T07:07:22.659Z,11.50
2023-05-11T07:09:50.436Z,11.80
2023-05-11T07:12:18.192Z,11.80
2023-05-11T07:14:45.953Z,11.70
2023-05-11T07:19:54.809Z,11.50
2023-05-11T07:22:22.225Z,11.90
2023-05-11T07:24:50.015Z,11.90
2023-05-11T07:27:17.271Z,11.80
2023-05-11T07:29:45.617Z,11.80
2023-05-11T07:32:13.659Z,12.20
2023-05-11T07:34:41.398Z,12.00
2023-05-11T07:39:53.770Z,12.00
2023-05-11T07:42:20.966Z,12.20
2023-05-11T07:44:48.387Z,12.40
2023-05-11T07:47:17.089Z,12.30
2023-05-11T07:49:47.052Z,12.40
2023-05-11T07:52:14.243Z,12.10
2023-05-11T07:54:41.306Z,12.10
2023-05-11T07:57:10.744Z,12.10
2023-05-11T08:04:42.782Z,11.90
2023-05-11T08:07:10.185Z,12.00
2023-05-11T08:09:37.498Z,12.30
2023-05-11T08:12:07.322Z,12.40
2023-05-11T08:14:35.403Z,12.60
2023-05-11T08:17:03.299Z,12.40
2023-05-11T08:19:30.527Z,12.20
2023-05-11T08:29:45.899Z,11.90
2023-05-11T08:32:12.944Z,12.00
2023-05-11T08:34:40.696Z,12.00
2023-05-11T08:37:07.977Z,12.40
2023-05-11T08:39:46.787Z,12.50
2023-05-11T08:42:16.418Z,12.50
2023-05-11T08:44:46.405Z,12.70
2023-05-11T08:49:57.897Z,13.00
2023-05-11T08:52:27.213Z,13.20
2023-05-11T08:54:54.860Z,13.20
2023-05-11T08:57:23.782Z,13.00
2023-05-11T08:59:52.222Z,12.80
2023-05-11T09:02:20.395Z,12.50
2023-05-11T09:04:48.914Z,12.40
2023-05-11T09:13:55.114Z,12.10
2023-05-11T09:16:36.244Z,12.20
2023-05-11T09:19:04.895Z,12.20
2023-05-11T09:21:32.623Z,12.10
2023-05-11T09:24:00.801Z,12.00
2023-05-11T09:26:29.188Z,12.20
2023-05-11T09:31:36.785Z,12.30
2023-05-11T09:39:16.597Z,12.40
2023-05-11T09:41:44.755Z,12.70
2023-05-11T09:44:14.388Z,12.80
2023-05-11T09:46:43.245Z,13.00
2023-05-11T09:49:11.384Z,12.80
2023-05-11T09:51:40.290Z,12.60
2023-05-11T09:54:17.660Z,12.40
2023-05-11T09:56:47.829Z,12.80
2023-05-11T10:04:30.192Z,13.20
2023-05-11T10:06:58.245Z,13.20
2023-05-11T10:09:28.176Z,13.50
2023-05-11T10:11:56.505Z,13.90
2023-05-11T10:14:27.415Z,13.80
2023-05-11T10:16:57.946Z,14.00
2023-05-11T10:19:28.754Z,14.50
2023-05-11T10:27:04.417Z,14.00
2023-05-11T10:29:36.141Z,13.90
2023-05-11T10:32:05.031Z,13.90
2023-05-11T10:34:33.669Z,14.00
2023-05-11T10:37:02.059Z,14.00
2023-05-11T10:39:32.270Z,14.00
2023-05-11T10:42:18.925Z,14.10
2023-05-11T10:48:12.294Z,13.90
2023-05-11T10:50:51.431Z,14.20
2023-05-11T10:53:45.318Z,14.50
2023-05-11T10:56:34.826Z,14.60
2023-05-11T10:59:30.791Z,14.60
2023-05-11T11:02:02.572Z,14.90
2023-05-11T11:04:48.434Z,14.70
2023-05-11T11:12:25.243Z,14.60
2023-05-11T11:14:58.052Z,14.70
2023-05-11T11:17:29.114Z,14.60
2023-05-11T11:20:01.753Z,14.90
2023-05-11T11:22:47.685Z,14.80
2023-05-11T11:25:39.989Z,15.10
2023-05-11T11:28:14.264Z,15.10
2023-05-11T11:35:51.250Z,15.30
2023-05-11T11:38:23.492Z,15.30
2023-05-11T11:40:55.092Z,15.20
2023-05-11T11:43:25.880Z,15.60
2023-05-11T11:45:56.388Z,15.30
2023-05-11T11:48:35.885Z,15.10
2023-05-11T11:51:07.836Z,15.20
2023-05-11T11:59:04.719Z,15.70
2023-05-11T12:01:38.051Z,16.00
2023-05-11T12:04:58.654Z,16.20
2023-05-11T12:07:31.792Z,16.30
2023-05-11T12:10:04.251Z,16.00
2023-05-11T12:12:32.549Z,16.00
2023-05-11T12:15:02.998Z,16.00
2023-05-11T12:22:37.916Z,15.80
2023-05-11T12:25:07.377Z,16.30
2023-05-11T12:27:34.647Z,16.40
2023-05-11T12:30:02.496Z,16.20
2023-05-11T12:32:35.688Z,15.80
2023-05-11T12:35:05.434Z,15.10
2023-05-11T12:37:35.822Z,15.20
2023-05-11T12:40:05.541Z,15.50
2023-05-11T12:50:20.621Z,15.30
2023-05-11T12:52:53.331Z,14.90
2023-05-11T12:55:30.924Z,14.90
2023-05-11T12:58:11.053Z,14.80
2023-05-11T13:00:50.224Z,14.90
2023-05-11T13:03:23.846Z,14.80
2023-05-11T13:06:04.260Z,15.00
2023-05-11T13:16:00.888Z,14.40
2023-05-11T13:18:29.765Z,14.40
2023-05-11T13:21:09.791Z,14.30
2023-05-11T13:23:38.268Z,14.60
2023-05-11T13:26:07.787Z,14.50
2023-05-11T13:28:39.259Z,14.50
2023-05-11T13:31:11.235Z,14.30
2023-05-11T13:36:21.089Z,14.20
2023-05-11T13:38:52.249Z,14.30
2023-05-11T13:41:20.578Z,14.30
2023-05-11T13:43:50.320Z,14.40
2023-05-11T13:46:18.925Z,14.50
2023-05-11T13:48:47.006Z,14.20
2023-05-11T13:51:13.884Z,14.10
2023-05-11T13:58:47.085Z,14.10
2023-05-11T14:01:14.285Z,14.10
2023-05-11T14:03:42.656Z,14.20
2023-05-11T14:06:12.214Z,13.90
2023-05-11T14:08:39.323Z,14.00
2023-05-11T14:11:06.605Z,14.00
2023-05-11T14:13:34.116Z,14.10
2023-05-11T14:18:41.954Z,14.10
2023-05-11T14:21:09.057Z,14.00
2023-05-11T14:23:39.857Z,13.90
2023-05-11T14:26:09.840Z,13.80
2023-05-11T14:28:37.510Z,13.50
2023-05-11T14:31:04.840Z,13.70
2023-05-11T14:33:33.565Z,13.50
2023-05-11T14:43:53.018Z,13.60
2023-05-11T14:46:21.045Z,13.60
2023-05-11T14:48:48.957Z,13.00
2023-05-11T14:51:18.684Z,12.70
2023-05-11T14:53:45.818Z,12.90
2023-05-11T14:56:15.445Z,13.10
2023-05-11T14:58:42.957Z,13.20
2023-05-11T15:04:21.723Z,13.70
2023-05-11T15:06:49.065Z,13.80
2023-05-11T15:09:17.136Z,13.80
2023-05-11T15:11:45.838Z,13.50
2023-05-11T15:14:13.011Z,13.40
2023-05-11T15:16:40.640Z,13.50
2023-05-11T15:19:09.740Z,13.40
2023-05-11T15:26:32.279Z,13.40
2023-05-11T15:29:00.232Z,13.40
2023-05-11T15:31:27.606Z,13.30
2023-05-11T15:33:55.215Z,13.00
2023-05-11T15:36:23.349Z,13.20
2023-05-11T15:38:51.054Z,13.60
2023-05-11T15:41:18.716Z,13.60
2023-05-11T15:47:13.617Z,13.90
2023-05-11T15:49:41.434Z,13.80
2023-05-11T15:52:08.580Z,13.80
2023-05-11T15:54:37.335Z,13.70
2023-05-11T15:57:07.981Z,13.80
2023-05-11T15:59:35.767Z,13.90
2023-05-11T16:02:03.402Z,14.10
2023-05-11T16:07:12.887Z,13.80
2023-05-11T16:09:40.149Z,13.80
2023-05-11T16:12:08.758Z,14.20
2023-05-11T16:14:36.250Z,14.00
2023-05-11T16:17:03.854Z,14.10
2023-05-11T16:19:32.279Z,13.90
2023-05-11T16:21:59.790Z,13.90
2023-05-11T16:28:55.874Z,13.30
2023-05-11T16:31:23.948Z,13.70
2023-05-11T16:33:51.657Z,13.60
2023-05-11T16:36:19.640Z,13.60
2023-05-11T16:38:48.534Z,13.60
2023-05-11T16:41:19.012Z,13.60
2023-05-11T16:43:47.388Z,13.60
2023-05-11T16:46:16.532Z,14.20
2023-05-11T16:53:48.723Z,14.50
2023-05-11T16:56:16.889Z,13.90
2023-05-11T16:58:44.445Z,13.90
2023-05-11T17:01:12.341Z,13.50
2023-05-11T17:03:39.680Z,13.90
2023-05-11T17:06:09.535Z,14.10
2023-05-11T17:08:37.005Z,13.80
2023-05-11T17:15:21.723Z,13.90
2023-05-11T17:17:51.700Z,14.10
2023-05-11T17:20:20.950Z,14.30
2023-05-11T17:22:48.717Z,14.20
2023-05-11T17:25:22.962Z,13.90
2023-05-11T17:27:50.515Z,13.70
2023-05-11T17:30:18.955Z,13.70
2023-05-11T17:36:01.916Z,13.70
2023-05-11T17:38:29.178Z,13.90
2023-05-11T17:40:58.969Z,14.00
2023-05-11T17:43:26.306Z,13.90
2023-05-11T17:45:53.287Z,14.00
2023-05-11T17:48:21.040Z,13.70
2023-05-11T17:50:49.862Z,13.90
2023-05-11T17:56:58.581Z,14.20
2023-05-11T17:59:26.638Z,13.60
2023-05-11T18:01:54.821Z,13.90
2023-05-11T18:04:22.690Z,13.90
2023-05-11T18:06:50.825Z,13.70
2023-05-11T18:09:19.300Z,13.80
2023-05-11T18:11:47.552Z,13.90
2023-05-11T18:14:16.073Z,13.90
2023-05-11T18:21:43.598Z,13.70
2023-05-11T18:24:17.194Z,13.70
2023-05-11T18:26:45.036Z,13.70
2023-05-11T18:29:12.369Z,13.60
2023-05-11T18:31:39.430Z,13.70
2023-05-11T18:34:12.046Z,13.70
2023-05-11T18:36:39.473Z,13.70
2023-05-11T18:41:48.223Z,13.50
2023-05-11T18:44:18.539Z,13.50
2023-05-11T18:46:46.078Z,13.50
2023-05-11T18:49:13.658Z,13.70
2023-05-11T18:51:44.008Z,13.70
2023-05-11T18:54:11.289Z,13.60
2023-05-11T18:56:38.684Z,13.60
2023-05-11T19:04:11.681Z,13.60
2023-05-11T19:06:38.991Z,13.80
2023-05-11T19:09:06.563Z,13.80
2023-05-11T19:11:35.001Z,13.80
2023-05-11T19:14:04.152Z,13.80
2023-05-11T19:16:36.472Z,13.80
2023-05-11T19:19:04.010Z,13.70
2023-05-11T19:24:28.350Z,13.50
2023-05-11T19:27:06.648Z,13.60
2023-05-11T19:29:37.836Z,13.40
2023-05-11T19:32:06.545Z,13.40
2023-05-11T19:34:36.307Z,13.20
2023-05-11T19:37:09.068Z,13.10
2023-05-11T19:39:39.840Z,12.80
2023-05-11T19:47:13.705Z,12.90
2023-05-11T19:49:43.010Z,12.80
2023-05-11T19:52:13.011Z,12.80
2023-05-11T19:54:41.231Z,12.90
2023-05-11T19:57:08.972Z,12.90
2023-05-11T19:59:38.363Z,12.80
2023-05-11T20:02:06.537Z,12.90
2023-05-11T20:07:27.018Z,12.90
2023-05-11T20:09:57.739Z,12.80
2023-05-11T20:12:25.109Z,12.90
2023-05-11T20:14:53.128Z,12.80
2023-05-11T20:17:21.450Z,12.80
2023-05-11T20:19:49.397Z,12.90
2023-05-11T20:22:21.042Z,12.90
2023-05-11T20:28:01.493Z,13.00
2023-05-11T20:30:29.246Z,13.10
2023-05-11T20:35:28.321Z,12.90
2023-05-11T20:37:55.281Z,13.00
2023-05-11T20:40:24.782Z,13.00
2023-05-11T20:42:52.221Z,12.90
2023-05-11T20:53:22.111Z,13.00
2023-05-11T20:55:50.371Z,13.30
2023-05-11T20:58:18.284Z,13.50
2023-05-11T21:00:46.208Z,13.60
2023-05-11T21:03:13.611Z,13.50
2023-05-11T21:05:40.855Z,13.70
2023-05-11T21:08:08.200Z,13.50
2023-05-11T21:10:36.473Z,13.30
2023-05-11T21:18:08.490Z,13.00
2023-05-11T21:20:37.151Z,13.20
2023-05-11T21:23:04.948Z,13.10
2023-05-11T21:25:32.810Z,12.90
2023-05-11T21:28:01.405Z,12.80
2023-05-11T21:30:29.243Z,12.80
2023-05-11T21:32:57.776Z,12.80
2023-05-11T21:38:06.336Z,12.70
2023-05-11T21:40:34.066Z,12.50
2023-05-11T21:43:02.291Z,12.50
2023-05-11T21:45:29.859Z,12.60
2023-05-11T21:47:58.870Z,12.60
2023-05-11T21:50:26.304Z,12.50
2023-05-11T21:52:54.469Z,12.40
2023-05-11T22:00:27.313Z,12.50
2023-05-11T22:02:55.439Z,12.70
2023-05-11T22:05:23.643Z,12.70
2023-05-11T22:07:53.905Z,12.80
2023-05-11T22:10:24.049Z,12.50
2023-05-11T22:12:51.823Z,12.40
2023-05-11T22:15:18.798Z,12.50
2023-05-11T22:17:47.995Z,12.70
2023-05-11T22:25:19.384Z,12.70
2023-05-11T22:27:47.487Z,12.60
2023-05-11T22:30:17.929Z,12.50
2023-05-11T22:32:45.630Z,12.40
2023-05-11T22:35:12.812Z,11.90
2023-05-11T22:37:40.232Z,12.30
2023-05-11T22:40:08.548Z,12.20
2023-05-11T22:47:40.337Z,12.10
2023-05-11T22:50:11.569Z,11.70
2023-05-11T22:52:39.495Z,11.90
2023-05-11T22:55:08.983Z,12.20
2023-05-11T22:57:35.952Z,12.60
2023-05-11T23:00:03.848Z,12.00
2023-05-11T23:02:32.837Z,12.10
2023-05-11T23:05:02.241Z,12.00
2023-05-11T23:12:33.427Z,12.20
2023-05-11T23:15:01.267Z,12.80
2023-05-11T23:17:28.714Z,13.10
2023-05-11T23:19:56.983Z,13.20
2023-05-11T23:22:24.782Z,13.20
2023-05-11T23:24:52.708Z,13.50
2023-05-11T23:27:20.146Z,13.60
2023-05-11T23:29:50.048Z,13.80
2023-05-11T23:37:24.094Z,13.90
2023-05-11T23:39:51.355Z,13.80
2023-05-11T23:42:18.955Z,13.80
2023-05-11T23:44:46.227Z,13.90
2023-05-11T23:47:14.026Z,13.80
2023-05-11T23:49:41.045Z,13.80
2023-05-11T23:52:08.992Z,14.00
2023-05-11T23:54:37.998Z,14.10
